createdAt,value
2022-11-22T00:00:42.338Z,-0.10
2022-11-22T00:03:11.560Z,-0.10
2022-11-22T00:05:40.769Z,0.00
2022-11-22T00:08:10.767Z,0.10
2022-11-22T00:10:40.293Z,-0.10
2022-11-22T00:13:14.671Z,-0.20
2022-11-22T00:15:43.896Z,-0.30
2022-11-22T00:18:13.175Z,-0.30
2022-11-22T00:20:42.095Z,-0.20
2022-11-22T00:23:11.202Z,-0.10
2022-11-22T00:25:42.859Z,-0.10
2022-11-22T00:28:16.025Z,0.00
2022-11-22T00:30:45.890Z,0.10
2022-11-22T00:33:15.123Z,-0.10
2022-11-22T00:35:44.532Z,0.00
2022-11-22T00:38:13.666Z,0.20
2022-11-22T00:40:42.706Z,0.30
2022-11-22T00:43:13.569Z,0.10
2022-11-22T00:45:43.948Z,0.30
2022-11-22T00:48:14.384Z,0.30
2022-11-22T00:50:44.237Z,1.00
2022-11-22T00:53:12.953Z,-0.10
2022-11-22T00:55:41.820Z,0.00
2022-11-22T00:58:13.003Z,-0.10
2022-11-22T01:00:42.566Z,-0.10
2022-11-22T01:03:13.712Z,-0.10
2022-11-22T01:05:44.559Z,0.00
2022-11-22T01:08:13.487Z,0.00
2022-11-22T01:10:44.802Z,-0.20
2022-11-22T01:13:15.503Z,-0.20
2022-11-22T01:15:47.894Z,0.90
2022-11-22T01:18:17.332Z,-0.20
2022-11-22T01:20:46.697Z,-0.20
2022-11-22T01:23:15.413Z,-0.20
2022-11-22T01:25:46.408Z,-0.20
2022-11-22T01:28:17.144Z,-0.30
2022-11-22T01:30:46.608Z,0.20
2022-11-22T01:33:16.655Z,-0.10
2022-11-22T01:35:46.771Z,-0.20
2022-11-22T01:38:16.141Z,-0.30
2022-11-22T01:40:45.496Z,-0.10
2022-11-22T01:43:20.443Z,-0.50
2022-11-22T01:45:53.276Z,-0.60
2022-11-22T01:48:30.988Z,-0.70
2022-11-22T01:51:05.626Z,-0.70
2022-11-22T01:53:38.382Z,-0.60
2022-11-22T01:56:11.726Z,-0.70
2022-11-22T01:58:46.877Z,-0.70
2022-11-22T02:01:16.210Z,-0.70
2022-11-22T02:03:50.000Z,-0.70
2022-11-22T02:06:20.490Z,-0.50
2022-11-22T02:08:58.602Z,-0.20
2022-11-22T02:11:34.026Z,-0.50
2022-11-22T02:14:07.231Z,-0.40
2022-11-22T02:16:37.979Z,-0.70
2022-11-22T02:19:11.848Z,-0.80
2022-11-22T02:21:40.910Z,-0.90
2022-11-22T02:24:15.656Z,-0.80
2022-11-22T02:26:47.163Z,-0.90
2022-11-22T02:29:16.272Z,-0.80
2022-11-22T02:31:51.322Z,-0.70
2022-11-22T02:34:22.267Z,-0.70
2022-11-22T02:36:55.327Z,-0.70
2022-11-22T02:39:31.022Z,-0.80
2022-11-22T02:42:02.342Z,-0.80
2022-11-22T02:44:31.620Z,-0.10
2022-11-22T02:47:00.322Z,-0.80
2022-11-22T02:49:29.981Z,-0.80
2022-11-22T02:51:59.566Z,0.10
2022-11-22T02:54:28.788Z,-0.80
2022-11-22T02:56:58.721Z,-0.80
2022-11-22T02:59:29.475Z,-0.70
2022-11-22T03:02:02.962Z,-0.80
2022-11-22T03:04:32.844Z,-0.80
2022-11-22T03:07:02.866Z,-0.50
2022-11-22T03:09:33.015Z,-0.90
2022-11-22T03:12:02.306Z,-0.80
2022-11-22T03:14:32.964Z,-0.80
2022-11-22T03:17:02.312Z,-0.30
2022-11-22T03:19:32.073Z,-0.80
2022-11-22T03:22:01.505Z,-0.70
2022-11-22T03:24:30.616Z,-0.50
2022-11-22T03:26:59.965Z,-0.50
2022-11-22T03:29:30.453Z,-0.60
2022-11-22T03:32:01.425Z,-0.60
2022-11-22T03:34:30.643Z,-0.60
2022-11-22T03:36:59.738Z,-0.60
2022-11-22T03:39:28.915Z,-0.50
2022-11-22T03:42:01.308Z,-0.50
2022-11-22T03:44:32.075Z,0.70
2022-11-22T03:47:06.800Z,-0.60
2022-11-22T03:49:35.994Z,-0.60
2022-11-22T03:52:05.459Z,-0.50
2022-11-22T03:54:34.907Z,-0.60
2022-11-22T03:57:04.087Z,-0.60
2022-11-22T03:59:33.012Z,-0.60
2022-11-22T04:02:08.868Z,-0.60
2022-11-22T04:04:38.443Z,-0.60
2022-11-22T04:07:07.178Z,-0.60
2022-11-22T04:09:36.241Z,-0.60
2022-11-22T04:12:05.994Z,-0.60
2022-11-22T04:14:52.305Z,-0.60
2022-11-22T04:17:36.293Z,-0.60
2022-11-22T04:20:21.875Z,-0.60
2022-11-22T04:22:58.225Z,-0.60
2022-11-22T04:25:28.503Z,-0.50
2022-11-22T04:27:58.443Z,-0.50
2022-11-22T04:30:49.358Z,-0.60
2022-11-22T04:33:19.709Z,-0.50
2022-11-22T04:35:49.580Z,-0.50
2022-11-22T04:38:22.597Z,-0.40
2022-11-22T04:40:55.107Z,-0.10
2022-11-22T04:43:44.385Z,-0.30
2022-11-22T04:46:14.572Z,-0.30
2022-11-22T04:48:45.025Z,-0.40
2022-11-22T04:51:34.086Z,-0.30
2022-11-22T04:54:06.650Z,0.80
2022-11-22T04:56:36.618Z,0.10
2022-11-22T04:59:06.217Z,-0.10
2022-11-22T05:01:37.118Z,-0.10
2022-11-22T05:04:07.971Z,-0.20
2022-11-22T05:06:38.261Z,0.40
2022-11-22T05:09:07.450Z,0.00
2022-11-22T05:11:37.184Z,0.60
2022-11-22T05:14:07.531Z,0.00
2022-11-22T05:16:37.403Z,-0.10
2022-11-22T05:19:08.797Z,-0.10
2022-11-22T05:21:39.365Z,-0.10
2022-11-22T05:24:07.733Z,-0.10
2022-11-22T05:26:38.598Z,0.00
2022-11-22T05:29:09.557Z,-0.10
2022-11-22T05:31:40.946Z,0.00
2022-11-22T05:34:12.085Z,-0.10
2022-11-22T05:36:42.836Z,0.00
2022-11-22T05:39:12.188Z,0.00
2022-11-22T05:41:56.228Z,0.90
2022-11-22T05:44:26.579Z,0.00
2022-11-22T05:46:55.685Z,0.70
2022-11-22T05:49:26.765Z,0.00
2022-11-22T05:51:56.446Z,1.30
2022-11-22T05:54:25.911Z,0.30
2022-11-22T05:56:55.127Z,-0.10
2022-11-22T05:59:25.418Z,-0.20
2022-11-22T06:01:54.295Z,-0.20
2022-11-22T06:04:24.942Z,-0.20
2022-11-22T06:06:57.397Z,-0.20
2022-11-22T06:09:27.436Z,-0.10
2022-11-22T06:11:57.457Z,-0.20
2022-11-22T06:14:28.255Z,-0.20
2022-11-22T06:16:58.405Z,-0.20
2022-11-22T06:19:27.431Z,0.20
2022-11-22T06:22:00.487Z,-0.20
2022-11-22T06:24:32.534Z,-0.20
2022-11-22T06:27:03.542Z,-0.20
2022-11-22T06:29:33.123Z,-0.20
2022-11-22T06:32:04.036Z,-0.10
2022-11-22T06:34:33.763Z,-0.10
2022-11-22T06:37:05.416Z,-0.10
2022-11-22T06:39:36.200Z,-0.10
2022-11-22T06:42:05.515Z,-0.10
2022-11-22T06:44:36.729Z,-0.10
2022-11-22T06:47:09.453Z,0.00
2022-11-22T06:49:39.437Z,0.00
2022-11-22T06:52:10.537Z,0.00
2022-11-22T06:54:41.727Z,0.00
2022-11-22T06:57:10.444Z,0.00
2022-11-22T06:59:39.526Z,0.10
2022-11-22T07:02:11.366Z,0.10
2022-11-22T07:04:56.339Z,0.20
2022-11-22T07:07:33.029Z,0.10
2022-11-22T07:10:02.624Z,0.20
2022-11-22T07:12:31.783Z,0.20
2022-11-22T07:15:02.699Z,0.20
2022-11-22T07:17:32.106Z,0.30
2022-11-22T07:20:01.716Z,0.20
2022-11-22T07:22:32.277Z,0.30
2022-11-22T07:25:03.185Z,0.30
2022-11-22T07:27:33.281Z,0.60
2022-11-22T07:30:02.304Z,0.40
2022-11-22T07:32:31.540Z,0.40
2022-11-22T07:35:00.728Z,0.40
2022-11-22T07:37:35.288Z,0.40
2022-11-22T07:40:05.216Z,0.40
2022-11-22T07:42:35.085Z,0.50
2022-11-22T07:45:04.069Z,0.60
2022-11-22T07:47:34.360Z,0.60
2022-11-22T07:50:05.943Z,0.60
2022-11-22T07:52:37.132Z,0.70
2022-11-22T07:55:12.653Z,0.70
2022-11-22T07:57:44.138Z,0.70
2022-11-22T08:00:15.435Z,0.70
2022-11-22T08:02:47.460Z,0.70
2022-11-22T08:05:16.863Z,0.80
2022-11-22T08:07:50.744Z,0.80
2022-11-22T08:10:20.643Z,0.80
2022-11-22T08:12:50.259Z,0.70
2022-11-22T08:15:19.737Z,0.80
2022-11-22T08:17:49.236Z,0.80
2022-11-22T08:20:18.961Z,0.90
2022-11-22T08:22:50.591Z,1.00
2022-11-22T08:25:20.279Z,0.90
2022-11-22T08:27:49.456Z,0.90
2022-11-22T08:30:19.818Z,0.90
2022-11-22T08:32:51.919Z,0.90
2022-11-22T08:35:25.712Z,1.00
2022-11-22T08:37:59.684Z,1.00
2022-11-22T08:40:30.704Z,1.10
2022-11-22T08:43:00.402Z,1.10
2022-11-22T08:45:29.482Z,1.20
2022-11-22T08:48:00.383Z,1.40
2022-11-22T08:50:29.790Z,1.20
2022-11-22T08:53:05.771Z,1.10
2022-11-22T08:55:35.611Z,1.20
2022-11-22T08:58:05.075Z,1.10
2022-11-22T09:00:35.695Z,1.20
2022-11-22T09:03:07.652Z,1.20
2022-11-22T09:08:31.264Z,1.40
2022-11-22T09:11:05.109Z,1.50
2022-11-22T09:13:34.440Z,1.50
2022-11-22T09:16:04.568Z,1.90
2022-11-22T09:18:34.206Z,1.50
2022-11-22T09:21:05.518Z,1.60
2022-11-22T09:23:37.384Z,1.70
2022-11-22T09:26:09.456Z,1.60
2022-11-22T09:28:39.312Z,1.60
2022-11-22T09:31:10.919Z,1.60
2022-11-22T09:33:41.699Z,1.50
2022-11-22T09:36:12.615Z,1.50
2022-11-22T09:38:44.155Z,1.50
2022-11-22T09:41:27.400Z,1.60
2022-11-22T09:44:09.444Z,1.70
2022-11-22T09:46:51.688Z,1.60
2022-11-22T09:49:30.784Z,1.70
2022-11-22T09:52:07.327Z,1.70
2022-11-22T09:54:44.079Z,1.80
2022-11-22T09:57:19.262Z,1.80
2022-11-22T09:59:52.935Z,1.90
2022-11-22T10:02:26.290Z,2.00
2022-11-22T10:04:59.035Z,1.90
2022-11-22T10:07:32.921Z,1.90
2022-11-22T10:10:07.209Z,2.00
2022-11-22T10:12:42.618Z,1.90
2022-11-22T10:15:24.292Z,1.90
2022-11-22T10:17:56.574Z,1.90
2022-11-22T10:20:27.702Z,2.20
2022-11-22T10:22:58.295Z,2.00
2022-11-22T10:25:42.143Z,2.00
2022-11-22T10:28:18.782Z,1.90
2022-11-22T10:30:58.218Z,2.00
2022-11-22T10:33:34.687Z,2.00
2022-11-22T10:36:19.200Z,2.00
2022-11-22T10:39:03.699Z,2.80
2022-11-22T10:41:47.119Z,2.10
2022-11-22T10:44:31.396Z,2.10
2022-11-22T10:47:13.489Z,2.10
2022-11-22T10:49:51.856Z,2.10
2022-11-22T10:52:31.502Z,2.10
2022-11-22T10:55:11.565Z,2.10
2022-11-22T10:57:48.886Z,2.40
2022-11-22T11:00:21.419Z,2.10
2022-11-22T11:03:17.461Z,2.10
2022-11-22T11:09:36.377Z,2.40
2022-11-22T11:11:38.775Z,2.50
2022-11-22T11:14:20.888Z,2.50
2022-11-22T11:16:51.585Z,2.60
2022-11-22T11:19:25.099Z,2.60
2022-11-22T11:22:04.224Z,2.60
2022-11-22T11:24:34.825Z,2.60
2022-11-22T11:27:05.491Z,2.70
2022-11-22T11:29:45.098Z,2.80
2022-11-22T11:32:16.382Z,2.90
2022-11-22T11:34:54.466Z,3.10
2022-11-22T11:37:29.421Z,3.20
2022-11-22T11:39:58.490Z,3.30
2022-11-22T11:42:37.230Z,3.30
2022-11-22T11:45:33.341Z,3.30
2022-11-22T11:48:05.250Z,3.20
2022-11-22T11:50:34.375Z,3.30
2022-11-22T11:53:07.464Z,2.40
2022-11-22T11:55:37.652Z,3.10
2022-11-22T11:58:18.557Z,3.10
2022-11-22T12:00:49.116Z,3.30
2022-11-22T12:03:22.717Z,3.40
2022-11-22T12:06:15.333Z,3.70
2022-11-22T12:08:47.885Z,3.70
2022-11-22T12:11:25.531Z,3.70
2022-11-22T12:16:54.260Z,3.70
2022-11-22T12:19:34.232Z,3.70
2022-11-22T12:22:19.707Z,3.70
2022-11-22T12:25:30.987Z,3.80
2022-11-22T12:27:54.803Z,3.60
2022-11-22T12:30:25.469Z,3.60
2022-11-22T12:33:02.730Z,3.50
2022-11-22T12:35:43.130Z,3.50
2022-11-22T12:38:18.687Z,3.50
2022-11-22T12:40:51.080Z,3.60
2022-11-22T12:43:26.522Z,3.70
2022-11-22T12:46:00.655Z,3.60
2022-11-22T12:48:44.576Z,3.70
2022-11-22T12:51:25.830Z,3.90
2022-11-22T12:53:59.342Z,4.00
2022-11-22T12:56:34.137Z,4.00
2022-11-22T12:59:08.715Z,4.00
2022-11-22T13:01:46.152Z,3.60
2022-11-22T13:04:28.858Z,3.50
2022-11-22T13:07:07.936Z,3.70
2022-11-22T13:09:43.093Z,3.40
2022-11-22T13:12:29.048Z,3.40
2022-11-22T13:15:03.032Z,3.50
2022-11-22T13:17:36.752Z,3.90
2022-11-22T13:20:13.407Z,4.00
2022-11-22T13:22:54.306Z,3.70
2022-11-22T13:25:44.557Z,3.40
2022-11-22T13:28:16.801Z,3.40
2022-11-22T13:31:08.481Z,3.40
2022-11-22T13:33:39.751Z,3.40
2022-11-22T13:36:41.729Z,3.30
2022-11-22T13:39:21.024Z,3.20
2022-11-22T13:42:02.496Z,3.10
2022-11-22T13:45:25.305Z,3.10
2022-11-22T13:47:58.469Z,3.10
2022-11-22T13:51:01.975Z,3.20
2022-11-22T13:53:37.616Z,3.20
2022-11-22T13:56:53.049Z,3.20
2022-11-22T13:59:22.404Z,3.20
2022-11-22T14:02:20.788Z,3.20
2022-11-22T14:04:56.820Z,3.10
2022-11-22T14:07:35.367Z,3.10
2022-11-22T14:10:25.690Z,3.10
2022-11-22T14:13:13.096Z,3.00
2022-11-22T14:15:59.813Z,2.90
2022-11-22T14:18:51.666Z,2.90
2022-11-22T14:21:42.344Z,3.00
2022-11-22T14:24:21.027Z,3.00
2022-11-22T14:27:02.321Z,3.00
2022-11-22T14:30:05.010Z,2.90
2022-11-22T14:33:02.825Z,3.00
2022-11-22T14:35:37.367Z,3.00
2022-11-22T14:38:32.246Z,2.90
2022-11-22T14:41:43.181Z,2.90
2022-11-22T14:44:27.843Z,2.90
2022-11-22T14:47:00.606Z,3.70
2022-11-22T14:49:42.871Z,2.90
2022-11-22T14:52:23.256Z,2.90
2022-11-22T14:54:58.911Z,3.00
2022-11-22T14:57:31.691Z,3.00
2022-11-22T15:00:20.558Z,3.00
2022-11-22T15:03:24.142Z,2.90
2022-11-22T15:09:19.644Z,2.80
2022-11-22T15:09:46.717Z,2.90
2022-11-22T15:12:41.300Z,2.90
2022-11-22T15:57:29.849Z,2.60
2022-11-22T16:00:00.216Z,2.60
2022-11-22T16:02:32.580Z,2.90
2022-11-22T16:06:03.555Z,2.60
2022-11-22T16:07:59.079Z,2.60
2022-11-22T16:10:37.822Z,2.60
2022-11-22T16:13:15.606Z,1.70
2022-11-22T16:16:04.526Z,2.70
2022-11-22T16:18:34.342Z,2.70
2022-11-22T16:21:06.051Z,2.70
2022-11-22T16:23:39.185Z,2.60
2022-11-22T16:26:22.293Z,2.50
2022-11-22T16:28:53.339Z,2.50
2022-11-22T16:31:25.509Z,2.50
2022-11-22T16:33:56.192Z,2.50
2022-11-22T16:36:27.527Z,2.60
2022-11-22T16:38:59.023Z,2.50
2022-11-22T16:41:30.499Z,2.50
2022-11-22T16:44:03.819Z,2.50
2022-11-22T16:46:33.812Z,2.70
2022-11-22T16:49:03.564Z,2.50
2022-11-22T16:51:36.100Z,2.50
2022-11-22T16:54:13.023Z,2.40
2022-11-22T16:56:42.011Z,2.40
2022-11-22T16:59:14.138Z,2.40
2022-11-22T17:01:45.869Z,2.40
2022-11-22T17:04:26.345Z,2.40
2022-11-22T17:06:56.245Z,2.30
2022-11-22T17:09:26.785Z,2.40
2022-11-22T17:11:57.907Z,2.40
2022-11-22T17:14:28.234Z,2.50
2022-11-22T17:16:57.699Z,2.40
2022-11-22T17:22:17.973Z,2.30
2022-11-22T17:24:48.691Z,2.30
2022-11-22T17:27:17.985Z,2.20
2022-11-22T17:29:51.339Z,2.20
2022-11-22T17:32:21.898Z,2.20
2022-11-22T17:34:50.978Z,2.30
2022-11-22T17:37:20.095Z,2.20
2022-11-22T17:39:54.571Z,2.20
2022-11-22T17:42:24.768Z,2.30
2022-11-22T17:44:54.176Z,2.30
2022-11-22T17:47:24.452Z,2.20
2022-11-22T17:49:53.533Z,2.20
2022-11-22T17:52:23.199Z,2.10
2022-11-22T17:54:59.458Z,2.10
2022-11-22T17:57:33.207Z,2.10
2022-11-22T18:00:02.380Z,0.90
2022-11-22T18:02:33.388Z,2.10
2022-11-22T18:05:06.429Z,2.10
2022-11-22T18:07:35.874Z,2.10
2022-11-22T18:10:09.404Z,2.20
2022-11-22T18:12:42.356Z,2.40
2022-11-22T18:15:16.263Z,2.50
2022-11-22T18:17:45.515Z,2.50
2022-11-22T18:20:15.139Z,2.40
2022-11-22T18:22:45.094Z,2.50
2022-11-22T18:25:17.187Z,2.30
2022-11-22T18:27:49.628Z,2.30
2022-11-22T18:30:20.527Z,2.30
2022-11-22T18:32:50.547Z,2.40
2022-11-22T18:35:20.101Z,2.40
2022-11-22T18:37:49.569Z,2.30
2022-11-22T18:40:20.640Z,2.30
2022-11-22T18:42:52.015Z,2.40
2022-11-22T18:45:23.447Z,2.30
2022-11-22T18:47:53.620Z,2.10
2022-11-22T18:50:23.826Z,2.00
2022-11-22T18:52:52.702Z,1.90
2022-11-22T18:55:23.562Z,1.90
2022-11-22T18:57:53.018Z,1.80
2022-11-22T19:00:23.044Z,1.70
2022-11-22T19:02:52.650Z,1.60
2022-11-22T19:05:24.721Z,1.50
2022-11-22T19:07:54.671Z,1.50
2022-11-22T19:10:25.877Z,1.50
2022-11-22T19:12:54.959Z,1.50
2022-11-22T19:15:24.529Z,1.40
2022-11-22T19:17:55.812Z,1.50
2022-11-22T19:20:53.499Z,1.50
2022-11-22T19:23:14.834Z,1.40
2022-11-22T19:25:45.215Z,1.30
2022-11-22T19:28:14.512Z,1.20
2022-11-22T19:30:44.408Z,1.20
2022-11-22T19:33:15.937Z,1.10
2022-11-22T19:35:56.644Z,1.10
2022-11-22T19:38:29.422Z,1.10
2022-11-22T19:41:00.818Z,1.10
2022-11-22T19:43:33.717Z,1.10
2022-11-22T19:46:05.901Z,1.00
2022-11-22T19:48:36.202Z,1.00
2022-11-22T19:51:10.039Z,1.00
2022-11-22T19:53:40.810Z,1.00
2022-11-22T19:56:15.960Z,1.00
2022-11-22T19:58:47.299Z,1.00
2022-11-22T20:01:22.234Z,0.90
2022-11-22T20:03:54.234Z,0.90
2022-11-22T20:06:24.819Z,0.80
2022-11-22T20:08:55.440Z,0.70
2022-11-22T20:11:27.736Z,0.70
2022-11-22T20:13:58.121Z,0.70
2022-11-22T20:16:30.033Z,0.80
2022-11-22T20:19:05.312Z,0.90
2022-11-22T20:21:37.425Z,0.90
2022-11-22T20:24:10.176Z,1.00
2022-11-22T20:26:41.754Z,1.10
2022-11-22T20:29:15.552Z,1.10
2022-11-22T20:31:44.903Z,1.00
2022-11-22T20:34:15.908Z,1.00
2022-11-22T20:36:46.449Z,1.10
2022-11-22T20:39:17.662Z,1.20
2022-11-22T20:42:05.818Z,1.00
2022-11-22T20:44:38.884Z,1.00
2022-11-22T20:47:09.463Z,1.10
2022-11-22T20:49:45.320Z,1.20
2022-11-22T20:52:16.469Z,1.20
2022-11-22T20:54:45.849Z,1.40
2022-11-22T20:57:17.767Z,1.40
2022-11-22T20:59:47.073Z,1.20
2022-11-22T21:02:17.818Z,1.00
2022-11-22T21:04:47.047Z,0.90
2022-11-22T21:07:16.740Z,0.80
2022-11-22T21:09:47.156Z,0.70
2022-11-22T21:12:20.380Z,0.90
2022-11-22T21:14:53.999Z,1.00
2022-11-22T21:17:56.043Z,1.10
2022-11-22T21:20:14.745Z,1.10
2022-11-22T21:22:44.719Z,1.20
2022-11-22T21:25:14.778Z,1.10
2022-11-22T21:27:45.920Z,1.10
2022-11-22T21:30:16.903Z,1.20
2022-11-22T21:32:48.452Z,1.30
2022-11-22T21:35:21.227Z,1.40
2022-11-22T21:37:51.908Z,1.40
2022-11-22T21:40:23.740Z,1.50
2022-11-22T21:42:55.197Z,1.40
2022-11-22T21:45:24.569Z,1.40
2022-11-22T21:47:53.736Z,1.30
2022-11-22T21:50:22.937Z,1.10
2022-11-22T21:52:52.899Z,0.90
2022-11-22T21:55:22.307Z,0.70
2022-11-22T21:57:51.223Z,0.60
2022-11-22T22:00:22.487Z,0.60
2022-11-22T22:02:52.220Z,0.50
2022-11-22T22:05:21.669Z,0.50
2022-11-22T22:07:52.907Z,0.50
2022-11-22T22:10:22.600Z,0.50
2022-11-22T22:12:53.240Z,0.50
2022-11-22T22:15:24.174Z,0.50
2022-11-22T22:17:55.412Z,0.40
2022-11-22T22:20:24.695Z,0.40
2022-11-22T22:22:53.719Z,0.40
2022-11-22T22:25:22.677Z,0.40
2022-11-22T22:27:52.161Z,0.40
2022-11-22T22:30:23.639Z,0.30
2022-11-22T22:32:53.564Z,0.30
2022-11-22T22:35:23.909Z,0.20
2022-11-22T22:37:53.173Z,0.30
2022-11-22T22:40:22.784Z,0.30
2022-11-22T22:42:52.059Z,0.30
2022-11-22T22:45:21.237Z,0.30
2022-11-22T22:47:52.351Z,0.70
2022-11-22T22:50:21.897Z,0.10
2022-11-22T22:52:51.080Z,0.10
2022-11-22T22:55:20.405Z,0.10
2022-11-22T22:57:49.740Z,0.10
2022-11-22T23:00:20.324Z,0.20
2022-11-22T23:02:51.797Z,0.00
2022-11-22T23:05:21.746Z,0.00
2022-11-22T23:07:51.332Z,0.00
2022-11-22T23:10:22.784Z,0.10
2022-11-22T23:12:52.302Z,0.10
2022-11-22T23:15:33.209Z,0.10
2022-11-22T23:18:15.253Z,0.10
2022-11-22T23:20:44.062Z,0.20
2022-11-22T23:23:13.319Z,-0.30
2022-11-22T23:25:42.582Z,0.20
2022-11-22T23:28:12.592Z,0.30
2022-11-22T23:30:41.895Z,0.30
2022-11-22T23:33:12.767Z,0.20
2022-11-22T23:35:42.851Z,0.30
2022-11-22T23:38:12.411Z,0.30
2022-11-22T23:40:41.817Z,0.30
2022-11-22T23:43:11.428Z,0.30
2022-11-22T23:45:46.448Z,0.30
2022-11-22T23:48:17.913Z,0.20
2022-11-22T23:50:46.917Z,0.20
2022-11-22T23:53:17.719Z,0.10
2022-11-22T23:55:47.102Z,0.00
2022-11-22T23:58:16.614Z,0.00
